Time;durP1;ratioP1;P1;durP2;ratioP2;P2;SDS_P1;SDS_P2;PMS_P1;PMS_P2;Temp;Humidity;BMP_temperature;BMP_pressure;BME280_temperature;BME280_humidity;BME280_pressure;Samples;Min_cycle;Max_cycle;Signal;HPM_P1;HPM_P2
2024/01/13 00:00:03;;;;;;;16.83;11.35;;;19.70;99.90;;;;;;5015491;28;20033;-53
2024/01/13 00:02:29;;;;;;;;;;;19.70;99.90;;;;;;5015320;28;20046;-54
2024/01/13 00:04:55;;;;;;;18.33;10.57;;;19.70;99.90;;;;;;5015373;28;19968;-53
2024/01/13 00:07:21;;;;;;;17.65;11.05;;;19.70;99.90;;;;;;5013975;28;20394;-53
2024/01/13 00:09:46;;;;;;;15.20;10.90;;;19.70;99.90;;;;;;5013698;28;20076;-54
2024/01/13 00:12:12;;;;;;;16.58;10.95;;;19.70;99.90;;;;;;5015208;28;20022;-53
2024/01/13 00:14:38;;;;;;;15.25;10.20;;;19.70;99.90;;;;;;5014944;28;20028;-52
2024/01/13 00:17:04;;;;;;;19.27;10.90;;;19.70;99.90;;;;;;5015141;28;20080;-52
2024/01/13 00:19:29;;;;;;;16.15;10.73;;;19.70;99.90;;;;;;5014912;28;20068;-52
2024/01/13 00:21:55;;;;;;;17.50;10.95;;;19.70;99.90;;;;;;5014942;28;20334;-52
2024/01/13 00:24:21;;;;;;;16.27;10.10;;;19.60;99.90;;;;;;5014767;28;20038;-52
2024/01/13 00:26:47;;;;;;;15.80;10.25;;;19.60;99.90;;;;;;5014672;28;20105;-52
2024/01/13 00:29:13;;;;;;;16.15;10.70;;;19.60;99.90;;;;;;5014754;28;20052;-52
2024/01/13 00:31:38;;;;;;;21.60;11.57;;;19.60;99.90;;;;;;5014677;28;20094;-52
2024/01/13 00:34:04;;;;;;;15.50;10.00;;;19.60;99.90;;;;;;5015095;28;20037;-52
2024/01/13 00:36:30;;;;;;;15.90;10.50;;;19.60;99.90;;;;;;5014708;28;20503;-52
2024/01/13 00:38:56;;;;;;;19.25;11.10;;;19.60;99.90;;;;;;5014553;28;20026;-53
2024/01/13 00:41:22;;;;;;;18.25;10.15;;;19.60;99.90;;;;;;5014535;28;20103;-52
2024/01/13 00:43:48;;;;;;;16.13;10.43;;;19.60;99.90;;;;;;5014374;28;20041;-53
2024/01/13 00:46:13;;;;;;;16.15;9.77;;;19.60;99.90;;;;;;5014552;28;20466;-53
2024/01/13 00:48:39;;;;;;;16.63;11.32;;;19.60;99.90;;;;;;5014392;28;20029;-53
2024/01/13 00:51:08;;;;;;;16.80;10.65;;;19.60;99.90;;;;;;5013266;28;20171;-54
2024/01/13 00:53:34;;;;;;;16.10;10.55;;;19.60;99.90;;;;;;5014559;28;20034;-53
2024/01/13 00:56:00;;;;;;;16.10;11.00;;;19.60;99.90;;;;;;5014238;28;20018;-53
2024/01/13 00:58:26;;;;;;;16.65;11.25;;;19.60;99.90;;;;;;5014235;28;20056;-53
2024/01/13 01:00:51;;;;;;;17.17;10.93;;;19.60;99.90;;;;;;5014047;28;20038;-53
2024/01/13 01:03:17;;;;;;;16.08;10.15;;;19.50;99.90;;;;;;5014021;28;20038;-53
2024/01/13 01:05:43;;;;;;;14.98;10.82;;;19.50;99.90;;;;;;5014083;28;20030;-53
2024/01/13 01:08:09;;;;;;;14.80;10.57;;;19.50;99.90;;;;;;5014018;28;20034;-53
2024/01/13 01:10:34;;;;;;;16.08;10.68;;;19.50;99.90;;;;;;5014249;28;20386;-53
2024/01/13 01:13:00;;;;;;;14.65;10.50;;;19.50;99.90;;;;;;5013893;28;20022;-53
2024/01/13 01:15:26;;;;;;;17.42;10.95;;;19.60;99.90;;;;;;5013817;28;20022;-53
2024/01/13 01:17:52;;;;;;;17.13;10.90;;;19.50;99.90;;;;;;5013961;28;20029;-53
2024/01/13 01:20:17;;;;;;;17.50;9.70;;;19.50;99.90;;;;;;5013118;28;20022;-53
2024/01/13 01:22:43;;;;;;;16.33;10.13;;;19.50;99.90;;;;;;5013797;28;20053;-52
2024/01/13 01:25:09;;;;;;;16.35;11.13;;;19.50;99.90;;;;;;5013870;28;20031;-53
2024/01/13 01:27:35;;;;;;;17.42;10.85;;;19.50;99.90;;;;;;5013967;28;20030;-52
2024/01/13 01:30:00;;;;;;;17.80;11.07;;;19.50;99.90;;;;;;5013747;28;20025;-53
2024/01/13 01:32:26;;;;;;;15.85;11.13;;;19.50;99.90;;;;;;5013645;28;20378;-53
2024/01/13 01:34:52;;;;;;;15.85;11.10;;;19.50;99.90;;;;;;5013729;28;20032;-52
2024/01/13 01:37:18;;;;;;;18.35;10.75;;;19.50;99.90;;;;;;5012459;28;20387;-53
2024/01/13 01:39:43;;;;;;;16.48;11.05;;;19.50;99.90;;;;;;5013366;28;20092;-52
2024/01/13 01:42:09;;;;;;;18.80;10.93;;;19.40;99.90;;;;;;5013564;28;20034;-53
2024/01/13 01:44:35;;;;;;;17.83;11.23;;;19.50;99.90;;;;;;5013582;28;20073;-53
2024/01/13 01:47:04;;;;;;;18.65;11.40;;;19.50;99.90;;;;;;5013217;28;20129;-53
2024/01/13 01:49:30;;;;;;;15.18;10.93;;;19.50;99.90;;;;;;5011935;28;20474;-53
2024/01/13 01:51:56;;;;;;;18.30;11.25;;;19.50;99.90;;;;;;5013215;28;20438;-54
2024/01/13 01:54:22;;;;;;;16.35;11.05;;;19.50;99.90;;;;;;5013310;28;20045;-53
2024/01/13 01:56:48;;;;;;;16.35;10.95;;;19.50;99.90;;;;;;5013163;28;20371;-53
2024/01/13 01:59:14;;;;;;;20.35;10.82;;;19.40;99.90;;;;;;5013224;28;20033;-53
2024/01/13 02:01:39;;;;;;;21.02;12.00;;;19.40;99.90;;;;;;5036749;23;20481;-49
2024/01/13 02:04:05;;;;;;;16.02;10.25;;;19.40;99.90;;;;;;5032740;28;20068;-50
2024/01/13 02:06:31;;;;;;;19.35;11.60;;;19.40;99.90;;;;;;5033003;28;20487;-49
2024/01/13 02:08:57;;;;;;;16.70;10.90;;;19.40;99.90;;;;;;5032686;28;20108;-50
2024/01/13 02:11:23;;;;;;;19.17;11.70;;;19.40;99.90;;;;;;5031333;28;20026;-50
2024/01/13 02:13:49;;;;;;;20.17;11.55;;;19.40;99.90;;;;;;5032598;28;20028;-50
2024/01/13 02:16:16;;;;;;;17.98;11.07;;;19.40;99.90;;;;;;5032616;28;20097;-50
2024/01/13 02:18:41;;;;;;;16.35;11.35;;;19.40;99.90;;;;;;5032676;28;20109;-49
2024/01/13 02:21:08;;;;;;;18.98;11.27;;;19.40;99.90;;;;;;5032575;28;20588;-50
2024/01/13 02:23:34;;;;;;;15.35;10.52;;;19.40;99.90;;;;;;5032263;28;20472;-50
2024/01/13 02:26:00;;;;;;;18.60;11.27;;;19.40;99.90;;;;;;5031396;28;20086;-50
2024/01/13 02:28:26;;;;;;;16.63;11.07;;;19.40;99.90;;;;;;5032512;28;20105;-50
2024/01/13 02:30:51;;;;;;;15.43;11.10;;;19.40;99.90;;;;;;5032495;28;20033;-49
2024/01/13 02:33:17;;;;;;;20.02;12.35;;;19.40;99.90;;;;;;5032356;28;20033;-50
2024/01/13 02:35:43;;;;;;;15.52;10.63;;;19.40;99.90;;;;;;5032475;28;20071;-49
2024/01/13 02:38:09;;;;;;;20.02;12.02;;;19.40;99.90;;;;;;5032436;28;20030;-50
2024/01/13 02:40:34;;;;;;;17.08;11.73;;;19.30;99.90;;;;;;5032230;28;20554;-50
2024/01/13 02:43:00;;;;;;;16.35;10.77;;;19.40;99.90;;;;;;5031915;28;20022;-50
2024/01/13 02:45:26;;;;;;;16.80;10.50;;;19.40;99.90;;;;;;5032238;28;20060;-50
2024/01/13 02:48:04;;;;;;;17.55;11.13;;;19.40;99.90;;;;;;5032140;28;20079;-50
2024/01/13 02:50:30;;;;;;;17.02;10.50;;;19.40;99.90;;;;;;5032152;28;20022;-50
2024/01/13 02:52:56;;;;;;;16.65;10.10;;;19.30;99.90;;;;;;5032060;28;20417;-50
2024/01/13 02:55:21;;;;;;;17.65;11.25;;;19.40;99.90;;;;;;5031971;28;20473;-49
2024/01/13 02:57:47;;;;;;;15.57;10.25;;;19.30;99.90;;;;;;5032152;28;20064;-49
2024/01/13 03:00:14;;;;;;;17.52;10.82;;;19.30;99.90;;;;;;5032716;28;20049;-50
2024/01/13 03:02:40;;;;;;;16.98;10.38;;;19.30;99.90;;;;;;5032082;28;20032;-49
2024/01/13 03:05:09;;;;;;;17.50;10.73;;;19.30;99.90;;;;;;5032101;28;20036;-49
2024/01/13 03:07:35;;;;;;;18.98;10.38;;;19.30;99.90;;;;;;5030596;28;20078;-49
2024/01/13 03:10:01;;;;;;;15.52;10.23;;;19.30;99.90;;;;;;5031928;28;20493;-49
2024/01/13 03:12:27;;;;;;;14.85;10.10;;;19.30;99.90;;;;;;5030955;28;20025;-49
2024/01/13 03:14:52;;;;;;;18.70;10.85;;;19.30;99.90;;;;;;5031822;28;20025;-49
2024/01/13 03:17:18;;;;;;;18.70;10.55;;;19.30;99.90;;;;;;5031856;28;20034;-49
2024/01/13 03:19:44;;;;;;;15.13;9.55;;;19.30;99.90;;;;;;5031190;28;20021;-49
2024/01/13 03:22:10;;;;;;;18.65;10.52;;;19.30;99.90;;;;;;5030082;28;20021;-49
2024/01/13 03:24:35;;;;;;;18.67;10.63;;;19.30;99.90;;;;;;5031311;28;20105;-50
2024/01/13 03:27:01;;;;;;;16.33;10.50;;;19.30;99.90;;;;;;5029394;28;20102;-49
2024/01/13 03:29:27;;;;;;;16.42;11.02;;;19.30;99.90;;;;;;5031486;28;20021;-50
2024/01/13 03:31:53;;;;;;;15.35;9.80;;;19.30;99.90;;;;;;5029429;28;20037;-50
2024/01/13 03:34:18;;;;;;;15.63;9.10;;;19.30;99.90;;;;;;5029987;28;20555;-50
2024/01/13 03:36:44;;;;;;;18.38;9.73;;;19.30;99.90;;;;;;5031885;28;20382;-49
2024/01/13 03:39:10;;;;;;;13.27;9.25;;;19.30;99.90;;;;;;5031218;28;20048;-49
2024/01/13 03:41:36;;;;;;;16.90;10.27;;;19.30;99.90;;;;;;5031316;28;20048;-49
2024/01/13 03:44:01;;;;;;;15.60;9.50;;;19.30;99.90;;;;;;5034145;28;20072;-49
2024/01/13 03:46:27;;;;;;;18.10;9.63;;;19.30;99.90;;;;;;5035457;28;20025;-49
2024/01/13 03:48:53;;;;;;;15.40;9.25;;;19.30;99.90;;;;;;5035361;28;20037;-49
2024/01/13 03:51:19;;;;;;;16.65;9.48;;;19.30;99.90;;;;;;5033754;28;20105;-50
2024/01/13 03:53:45;;;;;;;18.27;9.30;;;19.30;99.90;;;;;;5035071;28;20033;-50
2024/01/13 03:56:11;;;;;;;13.88;9.70;;;19.20;99.90;;;;;;5035124;28;20056;-50
2024/01/13 03:58:36;;;;;;;13.48;8.77;;;19.30;99.90;;;;;;5035117;28;20551;-49
2024/01/13 04:01:03;;;;;;;16.77;9.57;;;19.20;99.90;;;;;;5041037;22;20498;-53
2024/01/13 04:03:29;;;;;;;14.57;8.45;;;19.20;99.90;;;;;;5015212;28;20057;-53
2024/01/13 04:05:56;;;;;;;15.63;9.98;;;19.20;99.90;;;;;;5013738;28;20034;-54
2024/01/13 04:08:22;;;;;;;14.20;9.73;;;19.20;99.90;;;;;;5015335;28;20025;-53
2024/01/13 04:10:48;;;;;;;15.65;9.40;;;19.20;99.90;;;;;;5015166;28;20033;-53
2024/01/13 04:13:14;;;;;;;13.68;9.20;;;19.20;99.90;;;;;;5015192;28;20094;-52
2024/01/13 04:15:40;;;;;;;15.63;9.32;;;19.20;99.90;;;;;;5014935;28;20469;-53
2024/01/13 04:18:06;;;;;;;13.32;8.88;;;19.20;99.90;;;;;;5015117;28;20026;-53
2024/01/13 04:20:32;;;;;;;13.20;8.77;;;19.20;99.90;;;;;;5014052;28;20026;-53
2024/01/13 04:22:58;;;;;;;12.52;8.48;;;19.20;99.90;;;;;;5014782;28;20033;-53
2024/01/13 04:25:24;;;;;;;13.27;8.27;;;19.20;99.90;;;;;;5013663;28;20041;-53
2024/01/13 04:27:52;;;;;;;17.23;9.48;;;19.20;99.90;;;;;;5014813;28;20106;-53
2024/01/13 04:30:18;;;;;;;14.10;8.75;;;19.20;99.90;;;;;;5014867;28;20033;-53
2024/01/13 04:32:44;;;;;;;14.85;8.48;;;19.20;99.90;;;;;;5014733;28;20021;-53
2024/01/13 04:35:11;;;;;;;12.95;8.70;;;19.20;99.90;;;;;;5014593;28;20038;-53
2024/01/13 04:37:37;;;;;;;13.07;8.55;;;19.20;99.90;;;;;;5014637;28;20026;-53
2024/01/13 04:40:03;;;;;;;13.88;8.38;;;19.10;99.90;;;;;;5014943;28;20096;-54
2024/01/13 04:42:31;;;;;;;13.02;9.15;;;19.10;99.90;;;;;;5013377;28;20371;-54
2024/01/13 04:44:57;;;;;;;13.90;9.10;;;19.10;99.90;;;;;;5014551;28;20241;-54
2024/01/13 04:47:24;;;;;;;13.18;8.10;;;19.10;99.90;;;;;;5014490;28;20167;-53
2024/01/13 04:49:50;;;;;;;14.40;8.43;;;19.10;99.90;;;;;;5014469;28;20061;-53
2024/01/13 04:52:16;;;;;;;14.20;8.57;;;19.10;99.90;;;;;;5014390;28;20131;-53
2024/01/13 04:54:41;;;;;;;14.15;9.10;;;19.10;99.90;;;;;;5013381;28;20030;-53
2024/01/13 04:57:07;;;;;;;12.07;8.73;;;19.10;99.90;;;;;;5014480;28;20478;-54
2024/01/13 04:59:33;;;;;;;11.90;8.63;;;19.10;99.90;;;;;;5013258;28;20029;-53
2024/01/13 05:01:59;;;;;;;15.50;8.77;;;19.10;99.90;;;;;;5014243;28;20053;-53
2024/01/13 05:04:24;;;;;;;13.90;8.38;;;19.10;99.90;;;;;;4996629;28;20038;-53
2024/01/13 05:06:51;;;;;;;12.00;8.18;;;19.10;99.90;;;;;;5014159;28;20032;-53
2024/01/13 05:09:17;;;;;;;12.85;8.57;;;19.10;99.90;;;;;;5014216;28;20053;-53
2024/01/13 05:11:42;;;;;;;11.23;7.72;;;19.10;99.90;;;;;;5014106;28;20064;-53
2024/01/13 05:14:08;;;;;;;12.20;7.70;;;19.00;99.90;;;;;;5013922;28;20026;-54
2024/01/13 05:16:34;;;;;;;12.27;8.02;;;19.10;99.90;;;;;;5014094;28;20033;-53
2024/01/13 05:19:00;;;;;;;15.13;8.13;;;19.10;99.90;;;;;;5013977;28;20022;-53
2024/01/13 05:21:26;;;;;;;12.93;7.90;;;19.10;99.90;;;;;;5013863;28;20093;-54
2024/01/13 05:23:51;;;;;;;10.95;6.85;;;19.10;99.90;;;;;;5013883;28;20085;-53
2024/01/13 05:26:17;;;;;;;12.73;8.13;;;19.00;99.90;;;;;;5013739;28;20367;-54
2024/01/13 05:28:43;;;;;;;12.65;7.75;;;19.00;99.90;;;;;;5013590;28;20026;-52
2024/01/13 05:31:09;;;;;;;11.07;7.32;;;19.00;99.90;;;;;;5013483;28;20029;-51
2024/01/13 05:33:34;;;;;;;11.63;7.35;;;19.00;99.90;;;;;;5013801;28;20090;-53
2024/01/13 05:36:01;;;;;;;11.50;7.88;;;19.00;99.90;;;;;;5013656;28;20033;-52
2024/01/13 05:38:27;;;;;;;12.07;7.63;;;19.00;99.90;;;;;;5012468;28;20105;-52
2024/01/13 05:40:53;;;;;;;15.60;7.57;;;19.00;99.90;;;;;;5013454;28;20121;-52
2024/01/13 05:43:19;;;;;;;15.18;8.20;;;19.00;99.90;;;;;;5013475;28;20092;-52
2024/01/13 05:45:45;;;;;;;11.75;7.05;;;19.00;99.90;;;;;;5013313;28;20080;-52
2024/01/13 05:48:11;;;;;;;11.23;7.05;;;19.00;99.90;;;;;;5012603;28;20386;-53
2024/01/13 05:50:37;;;;;;;9.90;7.20;;;19.00;99.90;;;;;;5012377;28;20040;-53
2024/01/13 05:53:03;;;;;;;10.80;7.25;;;19.00;99.90;;;;;;5013265;28;20490;-53
2024/01/13 05:55:28;;;;;;;11.35;7.22;;;19.00;99.90;;;;;;5013271;28;20030;-53
2024/01/13 05:57:55;;;;;;;12.38;6.95;;;19.00;99.90;;;;;;5013205;28;20350;-53
2024/01/13 06:00:21;;;;;;;12.10;7.57;;;19.00;99.90;;;;;;5012235;28;20025;-52
2024/01/13 06:02:47;;;;;;;10.25;6.75;;;19.00;99.90;;;;;;5012872;28;20473;-53
2024/01/13 06:05:12;;;;;;;12.80;7.38;;;19.00;99.90;;;;;;5013100;28;20038;-53
2024/01/13 06:07:38;;;;;;;10.32;7.53;;;19.00;99.90;;;;;;5012964;28;20033;-53
2024/01/13 06:10:04;;;;;;;11.13;7.22;;;18.90;99.90;;;;;;5011215;28;20466;-53
2024/01/13 06:12:30;;;;;;;10.13;6.90;;;19.00;99.90;;;;;;5012584;28;20131;-53
2024/01/13 06:14:57;;;;;;;11.45;7.30;;;18.90;99.90;;;;;;5013005;28;20101;-53
2024/01/13 06:17:22;;;;;;;9.57;6.25;;;19.00;99.90;;;;;;5012916;28;20025;-53
2024/01/13 06:19:48;;;;;;;12.43;6.10;;;18.90;99.90;;;;;;5012810;28;20441;-53
2024/01/13 06:22:14;;;;;;;11.75;7.00;;;19.00;99.90;;;;;;5012865;28;20021;-53
2024/01/13 06:24:40;;;;;;;10.88;6.70;;;18.90;99.90;;;;;;5013025;28;20030;-53
2024/01/13 06:27:06;;;;;;;10.75;7.07;;;18.90;99.90;;;;;;5012876;28;20026;-52
2024/01/13 06:29:32;;;;;;;11.30;7.00;;;18.90;99.90;;;;;;5012646;28;20022;-53
2024/01/13 06:31:57;;;;;;;9.82;6.60;;;18.90;99.90;;;;;;5011358;28;20026;-53
2024/01/13 06:34:23;;;;;;;10.90;6.88;;;18.90;99.90;;;;;;5012658;28;20539;-52
2024/01/13 06:36:49;;;;;;;10.88;6.72;;;18.90;99.90;;;;;;5012513;28;20014;-53
2024/01/13 06:39:15;;;;;;;12.52;7.63;;;18.90;99.90;;;;;;5012584;28;20132;-53
2024/01/13 06:41:41;;;;;;;10.18;6.63;;;18.90;99.90;;;;;;5012788;28;20029;-53
2024/01/13 06:44:06;;;;;;;8.13;5.75;;;18.90;99.90;;;;;;4995028;28;20042;-52
2024/01/13 06:46:32;;;;;;;13.23;7.63;;;18.90;99.90;;;;;;5012409;28;20518;-52
2024/01/13 06:48:58;;;;;;;11.32;6.65;;;18.90;99.90;;;;;;5012446;28;20026;-52
2024/01/13 06:51:24;;;;;;;11.10;7.20;;;18.90;99.90;;;;;;5012518;28;20022;-52
2024/01/13 06:53:49;;;;;;;11.95;7.07;;;18.90;99.90;;;;;;5012397;28;20030;-52
2024/01/13 06:56:15;;;;;;;12.98;6.47;;;18.90;99.90;;;;;;5012420;28;20033;-53
2024/01/13 06:58:41;;;;;;;10.32;6.00;;;18.90;99.90;;;;;;5012363;28;20022;-53
2024/01/13 07:01:07;;;;;;;10.93;6.53;;;18.90;99.90;;;;;;5012116;28;20072;-53
2024/01/13 07:03:33;;;;;;;9.15;6.13;;;18.90;99.90;;;;;;5012254;28;20048;-54
2024/01/13 07:05:59;;;;;;;7.50;5.97;;;18.90;99.90;;;;;;5012336;28;20148;-53
2024/01/13 07:08:25;;;;;;;9.88;5.93;;;18.90;99.90;;;;;;5012333;28;20030;-53
2024/01/13 07:10:53;;;;;;;9.02;6.63;;;18.90;99.90;;;;;;5011185;28;20436;-53
2024/01/13 07:13:19;;;;;;;8.57;6.45;;;18.90;99.90;;;;;;5012154;28;20030;-53
2024/01/13 07:15:45;;;;;;;9.88;6.45;;;18.90;99.90;;;;;;5012185;28;20026;-52
2024/01/13 07:18:11;;;;;;;9.82;7.18;;;18.90;99.90;;;;;;5013443;28;20152;-52
2024/01/13 07:20:37;;;;;;;8.90;6.18;;;18.90;99.90;;;;;;5016089;28;20026;-52
2024/01/13 07:23:03;;;;;;;10.95;6.82;;;18.90;99.90;;;;;;5015932;28;20105;-53
2024/01/13 07:25:30;;;;;;;10.13;6.45;;;18.90;99.90;;;;;;5014750;28;20504;-52
2024/01/13 07:27:56;;;;;;;8.68;6.65;;;18.90;99.90;;;;;;5015964;28;20014;-52
2024/01/13 07:30:22;;;;;;;9.02;6.53;;;18.90;99.90;;;;;;5016120;28;20050;-53
2024/01/13 07:32:48;;;;;;;9.05;6.07;;;18.90;99.90;;;;;;5015894;28;20434;-52
2024/01/13 07:35:14;;;;;;;8.75;6.57;;;18.90;99.90;;;;;;5014778;28;20032;-53
2024/01/13 07:37:40;;;;;;;10.30;5.90;;;18.90;99.90;;;;;;5015991;28;20033;-54
2024/01/13 07:40:06;;;;;;;10.20;6.40;;;18.90;99.90;;;;;;5014592;28;20014;-53
2024/01/13 07:42:32;;;;;;;12.50;7.28;;;18.90;99.90;;;;;;5015689;28;20030;-53
2024/01/13 07:44:59;;;;;;;11.07;6.78;;;18.90;99.90;;;;;;5015689;28;20121;-53
2024/01/13 07:47:25;;;;;;;11.15;6.72;;;18.90;99.90;;;;;;5015593;28;20022;-53
2024/01/13 07:49:51;;;;;;;9.97;6.53;;;18.90;99.90;;;;;;5015576;28;20025;-53
2024/01/13 07:52:17;;;;;;;11.73;6.97;;;18.90;99.90;;;;;;5015473;28;20044;-53
2024/01/13 07:54:43;;;;;;;8.18;6.30;;;18.80;99.90;;;;;;5015720;28;20026;-53
2024/01/13 07:57:08;;;;;;;12.60;7.35;;;18.80;99.90;;;;;;5014188;28;20079;-53
2024/01/13 07:59:34;;;;;;;8.80;6.72;;;18.90;99.90;;;;;;5015427;28;20022;-53
2024/01/13 08:02:00;;;;;;;9.80;6.57;;;18.80;99.90;;;;;;5015216;28;20413;-53
2024/01/13 08:04:26;;;;;;;9.88;6.85;;;18.80;99.90;;;;;;5015180;28;20025;-53
2024/01/13 08:06:52;;;;;;;12.57;7.82;;;18.90;99.90;;;;;;5015388;28;20022;-52
2024/01/13 08:09:18;;;;;;;10.90;7.30;;;18.80;99.90;;;;;;5015769;28;20052;-52
2024/01/13 08:11:44;;;;;;;12.35;7.85;;;18.80;99.90;;;;;;5015298;28;20033;-53
2024/01/13 08:14:09;;;;;;;11.38;7.60;;;18.80;99.90;;;;;;5015199;28;20032;-52
2024/01/13 08:16:35;;;;;;;9.85;7.10;;;18.80;99.90;;;;;;5015040;28;20030;-53
2024/01/13 08:19:02;;;;;;;14.98;8.85;;;18.80;99.90;;;;;;5013818;28;20064;-53
2024/01/13 08:21:28;;;;;;;12.70;7.80;;;18.80;99.90;;;;;;5013530;28;20125;-53
2024/01/13 08:23:53;;;;;;;13.23;8.13;;;18.80;99.90;;;;;;5014677;28;20033;-54
2024/01/13 08:26:19;;;;;;;9.90;7.00;;;18.90;99.90;;;;;;5014857;28;20033;-54
2024/01/13 08:28:45;;;;;;;9.73;6.95;;;18.80;99.90;;;;;;5013527;28;20080;-53
2024/01/13 08:31:11;;;;;;;12.05;7.88;;;18.90;99.90;;;;;;5013590;28;20034;-53
2024/01/13 08:33:38;;;;;;;10.73;7.03;;;18.90;99.90;;;;;;5014754;28;20072;-53
2024/01/13 08:36:05;;;;;;;9.93;7.30;;;18.80;99.90;;;;;;5014761;28;20022;-54
2024/01/13 08:38:30;;;;;;;13.07;8.15;;;18.90;99.90;;;;;;5013488;28;20399;-53
2024/01/13 08:40:56;;;;;;;11.57;7.55;;;18.90;99.90;;;;;;5014597;28;20037;-53
2024/01/13 08:43:22;;;;;;;9.82;7.63;;;18.80;99.90;;;;;;5013105;28;20064;-53
2024/01/13 08:45:48;;;;;;;12.88;8.00;;;18.80;99.90;;;;;;5014579;28;20026;-53
2024/01/13 08:48:13;;;;;;;12.15;8.65;;;18.90;99.90;;;;;;5014737;28;20032;-53
2024/01/13 08:50:40;;;;;;;14.25;8.50;;;18.90;99.90;;;;;;5014337;28;20026;-52
2024/01/13 08:53:06;;;;;;;13.30;8.73;;;18.90;99.90;;;;;;5014475;28;20057;-53
2024/01/13 08:55:32;;;;;;;12.25;8.40;;;18.90;99.90;;;;;;5014270;28;20021;-53
2024/01/13 08:57:58;;;;;;;13.13;8.38;;;18.90;99.90;;;;;;5014237;28;20030;-53
2024/01/13 09:00:23;;;;;;;12.45;8.93;;;18.90;99.90;;;;;;5012941;28;20482;-53
2024/01/13 09:02:49;;;;;;;17.17;9.93;;;18.90;99.90;;;;;;5013930;28;20052;-53
2024/01/13 09:05:15;;;;;;;13.85;9.13;;;18.90;99.90;;;;;;5013100;28;20363;-52
2024/01/13 09:07:41;;;;;;;11.30;8.43;;;18.90;99.90;;;;;;5013994;28;20097;-53
2024/01/13 09:10:07;;;;;;;14.20;9.70;;;18.90;99.90;;;;;;5014032;28;20407;-53
2024/01/13 09:12:33;;;;;;;14.32;9.30;;;18.90;99.90;;;;;;5014049;28;20115;-53
2024/01/13 09:14:58;;;;;;;14.23;9.35;;;18.90;99.90;;;;;;5012702;28;20056;-53
2024/01/13 09:17:24;;;;;;;12.52;8.55;;;18.90;99.90;;;;;;5013879;28;20500;-52
2024/01/13 09:19:50;;;;;;;11.55;8.90;;;18.90;99.90;;;;;;5013881;28;20099;-53
2024/01/13 09:22:16;;;;;;;14.77;8.45;;;18.90;99.90;;;;;;5013992;28;20026;-53
2024/01/13 09:24:42;;;;;;;14.65;9.40;;;18.90;99.90;;;;;;5013765;28;20237;-54
2024/01/13 09:27:08;;;;;;;14.25;9.82;;;18.90;99.90;;;;;;5012368;28;20524;-52
2024/01/13 09:29:33;;;;;;;14.90;9.05;;;18.90;99.90;;;;;;5013640;28;20030;-55
2024/01/13 09:31:59;;;;;;;14.40;9.57;;;18.90;99.90;;;;;;5013656;28;20037;-53
2024/01/13 09:34:25;;;;;;;14.07;9.85;;;18.90;99.90;;;;;;5013556;28;20040;-53
2024/01/13 09:36:51;;;;;;;16.70;9.90;;;19.00;99.90;;;;;;5013557;28;20022;-53
2024/01/13 09:39:17;;;;;;;13.40;9.63;;;19.00;99.90;;;;;;5013662;28;20025;-53
2024/01/13 09:41:45;;;;;;;13.48;9.35;;;19.00;99.90;;;;;;5012901;28;20028;-53
2024/01/13 09:44:23;;;;;;;;;;;19.00;99.90;;;;;;5013647;28;20044;-52
2024/01/13 09:46:51;;;;;;;15.15;9.05;;;19.00;99.90;;;;;;5013488;28;20266;-52
2024/01/13 09:49:18;;;;;;;19.70;10.02;;;19.00;99.90;;;;;;5013560;28;20079;-52
2024/01/13 09:51:45;;;;;;;13.68;9.02;;;19.00;99.90;;;;;;5013208;28;20076;-53
2024/01/13 09:54:22;;;;;;;15.60;9.75;;;19.00;99.90;;;;;;5013220;28;20026;-53
2024/01/13 09:56:48;;;;;;;;;;;19.00;99.90;;;;;;5013781;28;20049;-53
2024/01/13 09:59:15;;;;;;;14.85;10.07;;;19.00;99.90;;;;;;5013215;28;20380;-53
2024/01/13 10:01:41;;;;;;;14.32;9.07;;;19.00;99.90;;;;;;5012939;28;20049;-53
2024/01/13 10:04:08;;;;;;;14.52;9.50;;;19.00;99.90;;;;;;5013030;28;20037;-52
2024/01/13 10:06:37;;;;;;;15.20;9.93;;;19.00;99.90;;;;;;5013006;28;20028;-52
2024/01/13 10:09:04;;;;;;;14.68;9.98;;;19.00;99.90;;;;;;5013030;28;20030;-52
2024/01/13 10:11:30;;;;;;;12.85;9.07;;;19.00;99.90;;;;;;5013034;28;20022;-53
2024/01/13 10:14:02;;;;;;;14.45;9.80;;;19.00;99.90;;;;;;5012902;28;20045;-53
2024/01/13 10:16:30;;;;;;;14.27;9.70;;;19.00;99.90;;;;;;5012927;28;20022;-53
2024/01/13 10:19:03;;;;;;;13.43;8.63;;;19.10;99.90;;;;;;5012808;28;20087;-53
2024/01/13 10:21:29;;;;;;;14.23;9.57;;;19.10;99.90;;;;;;5012677;28;20096;-53
2024/01/13 10:23:57;;;;;;;12.80;9.00;;;19.20;99.90;;;;;;5012522;28;20164;-53
2024/01/13 10:26:23;;;;;;;;;;;19.20;99.90;;;;;;5013207;28;20030;-54
2024/01/13 10:28:50;;;;;;;12.80;9.18;;;19.20;99.90;;;;;;5011469;28;19928;-53
2024/01/13 10:31:17;;;;;;;13.98;9.88;;;19.30;99.90;;;;;;5012411;28;20029;-53
2024/01/13 10:33:48;;;;;;;14.93;9.30;;;19.30;99.90;;;;;;5012527;28;20439;-53
2024/01/13 10:36:22;;;;;;;10.73;8.35;;;19.30;99.90;;;;;;5012436;28;20060;-53
2024/01/13 10:38:49;;;;;;;12.57;8.60;;;19.30;99.90;;;;;;5012462;28;20066;-52
2024/01/13 10:41:16;;;;;;;14.60;9.80;;;19.30;99.90;;;;;;5012464;28;20053;-53
2024/01/13 10:43:43;;;;;;;14.45;9.20;;;19.30;99.90;;;;;;5012389;28;20029;-53
2024/01/13 10:46:10;;;;;;;;;;;19.30;99.90;;;;;;5012848;28;20026;-53
2024/01/13 10:48:45;;;;;;;13.48;8.73;;;19.40;99.90;;;;;;5012396;28;19953;-53
2024/01/13 10:51:34;;;;;;;13.27;8.98;;;19.40;99.90;;;;;;5012443;28;20109;-53
2024/01/13 10:54:01;;;;;;;15.60;9.40;;;19.30;99.90;;;;;;5011189;28;20018;-53
2024/01/13 10:56:29;;;;;;;12.38;9.45;;;19.40;99.90;;;;;;5010905;28;20129;-53
2024/01/13 10:58:57;;;;;;;12.05;8.15;;;19.40;99.90;;;;;;5012222;28;20026;-53
2024/01/13 11:01:23;;;;;;;14.32;8.77;;;19.40;99.90;;;;;;5010941;28;20049;-53
2024/01/13 11:03:50;;;;;;;14.48;9.20;;;19.40;99.90;;;;;;5011913;28;20040;-53
2024/01/13 11:06:16;;;;;;;12.20;8.30;;;19.40;99.90;;;;;;5012158;28;20026;-53
2024/01/13 11:08:43;;;;;;;11.02;8.02;;;19.40;99.90;;;;;;5011983;28;20333;-54
2024/01/13 11:11:11;;;;;;;14.05;9.38;;;19.40;99.90;;;;;;5012058;28;20084;-52
2024/01/13 11:13:45;;;;;;;11.57;8.20;;;19.40;99.90;;;;;;5011963;28;20026;-53
2024/01/13 11:16:14;;;;;;;12.15;8.38;;;19.40;99.90;;;;;;5012058;28;20030;-53
2024/01/13 11:18:49;;;;;;;11.98;8.15;;;19.40;99.90;;;;;;5012014;28;20109;-53
2024/01/13 11:21:22;;;;;;;14.27;8.98;;;19.40;99.90;;;;;;5011692;28;20034;-52
2024/01/13 11:23:58;;;;;;;14.07;9.45;;;19.50;99.90;;;;;;5011528;28;20529;-52
2024/01/13 11:26:40;;;;;;;12.98;9.38;;;19.50;99.90;;;;;;5012177;28;20036;-52
2024/01/13 11:29:21;;;;;;;13.23;9.13;;;19.50;99.90;;;;;;5012120;28;20101;-52
2024/01/13 11:31:53;;;;;;;15.93;10.45;;;19.50;99.90;;;;;;5012088;28;20040;-52
2024/01/13 11:34:19;;;;;;;18.83;10.43;;;19.60;99.90;;;;;;5011915;28;20026;-52
2024/01/13 11:36:50;;;;;;;17.55;11.18;;;19.60;99.90;;;;;;5011962;28;20022;-52
2024/01/13 11:39:17;;;;;;;12.27;9.38;;;19.60;99.90;;;;;;5011967;28;20029;-52
2024/01/13 11:41:51;;;;;;;15.93;10.70;;;19.60;99.90;;;;;;5011977;28;20034;-52
2024/01/13 11:44:50;;;;;;;13.85;9.63;;;19.60;99.90;;;;;;5011818;28;20037;-53
2024/01/13 11:47:27;;;;;;;17.88;10.20;;;19.60;99.90;;;;;;5008971;28;20128;-52
2024/01/13 11:49:53;;;;;;;17.33;10.85;;;19.60;99.90;;;;;;5012191;28;20113;-52
2024/01/13 11:52:32;;;;;;;16.83;10.38;;;19.70;99.90;;;;;;5011844;28;20046;-52
2024/01/13 11:54:59;;;;;;;16.73;10.13;;;19.70;99.90;;;;;;5011875;28;20469;-52
2024/01/13 11:57:25;;;;;;;20.70;10.98;;;19.70;99.90;;;;;;5011945;28;20030;-53
2024/01/13 11:59:51;;;;;;;20.38;10.52;;;19.70;99.90;;;;;;5011725;28;20029;-53
2024/01/13 12:02:20;;;;;;;16.58;10.98;;;19.70;99.90;;;;;;5010304;28;20553;-52
2024/01/13 12:04:49;;;;;;;16.55;10.50;;;19.70;99.90;;;;;;5013471;28;20397;-53
2024/01/13 12:07:15;;;;;;;17.63;10.50;;;19.70;99.90;;;;;;5015319;28;20056;-53
2024/01/13 12:09:41;;;;;;;17.55;10.23;;;19.70;99.90;;;;;;5015055;28;20030;-53
2024/01/13 12:12:07;;;;;;;15.02;10.63;;;19.80;99.90;;;;;;5015315;28;20018;-54
2024/01/13 12:14:34;;;;;;;15.80;10.50;;;19.80;99.90;;;;;;5013961;28;20100;-52
2024/01/13 12:17:03;;;;;;;16.25;10.90;;;19.70;99.90;;;;;;5015080;28;20026;-52
2024/01/13 12:19:36;;;;;;;14.05;10.15;;;19.80;99.90;;;;;;5015021;28;20117;-52
2024/01/13 12:22:05;;;;;;;13.52;9.55;;;19.80;99.90;;;;;;5015009;28;20518;-52
2024/01/13 12:24:33;;;;;;;14.98;9.77;;;19.80;99.90;;;;;;5014955;28;20429;-52
2024/01/13 12:26:59;;;;;;;16.45;9.68;;;19.80;99.90;;;;;;5014892;28;20029;-53
2024/01/13 12:29:29;;;;;;;16.02;10.57;;;19.80;99.90;;;;;;5015087;28;20083;-52
2024/01/13 12:31:58;;;;;;;14.88;9.95;;;19.80;99.90;;;;;;5014884;28;20441;-53